createdAt,value
2019-03-27T00:00:09.566Z,32.25
2019-03-27T00:02:39.647Z,29.95
2019-03-27T00:05:08.451Z,41.58
2019-03-27T00:07:57.266Z,29.75
2019-03-27T00:10:26.621Z,27.70
2019-03-27T00:12:55.148Z,30.92
2019-03-27T00:15:23.640Z,29.17
2019-03-27T00:17:52.093Z,28.40
2019-03-27T00:20:20.550Z,33.00
2019-03-27T00:22:49.050Z,25.75
2019-03-27T00:25:17.565Z,34.88
2019-03-27T00:27:46.025Z,30.08
2019-03-27T00:30:14.648Z,28.27
2019-03-27T00:32:43.175Z,24.05
2019-03-27T00:35:12.999Z,31.23
2019-03-27T00:37:41.484Z,25.72
2019-03-27T00:40:11.580Z,30.67
2019-03-27T00:42:40.058Z,29.92
2019-03-27T00:45:10.194Z,28.38
2019-03-27T00:47:38.712Z,22.37
2019-03-27T00:50:08.160Z,30.90
2019-03-27T00:52:36.669Z,28.95
2019-03-27T00:55:07.364Z,34.65
2019-03-27T00:57:36.667Z,28.60
2019-03-27T01:00:11.942Z,29.42
2019-03-27T01:02:40.486Z,24.82
2019-03-27T01:05:10.493Z,38.00
2019-03-27T01:07:43.727Z,34.90
2019-03-27T01:10:13.261Z,34.10
2019-03-27T01:12:41.818Z,29.90
2019-03-27T01:15:14.436Z,34.53
2019-03-27T01:17:42.705Z,30.93
2019-03-27T01:20:11.443Z,29.20
2019-03-27T01:22:39.909Z,31.80
2019-03-27T01:25:11.460Z,23.75
2019-03-27T01:27:39.963Z,36.30
2019-03-27T01:30:08.982Z,36.13
2019-03-27T01:32:39.836Z,28.70
2019-03-27T01:35:08.435Z,35.68
2019-03-27T01:37:36.982Z,28.85
2019-03-27T01:40:06.075Z,27.70
2019-03-27T01:42:34.636Z,27.70
2019-03-27T01:45:10.674Z,34.83
2019-03-27T01:47:39.259Z,28.77
2019-03-27T01:50:08.888Z,35.88
2019-03-27T01:52:39.780Z,31.05
2019-03-27T01:55:11.591Z,28.05
2019-03-27T01:57:45.967Z,27.60
2019-03-27T02:00:15.387Z,30.65
2019-03-27T02:02:43.884Z,28.05
2019-03-27T02:05:12.347Z,29.92
2019-03-27T02:07:40.798Z,27.40
2019-03-27T02:10:10.446Z,24.05
2019-03-27T02:12:38.985Z,27.98
2019-03-27T02:15:12.008Z,24.52
2019-03-27T02:17:40.558Z,25.13
2019-03-27T02:20:09.971Z,27.83
2019-03-27T02:22:38.507Z,24.72
2019-03-27T02:25:07.056Z,30.27
2019-03-27T02:27:35.576Z,26.25
2019-03-27T02:30:07.150Z,28.67
2019-03-27T02:32:35.697Z,26.77
2019-03-27T02:35:06.896Z,22.10
2019-03-27T02:37:36.874Z,31.15
2019-03-27T02:40:15.653Z,30.95
2019-03-27T02:42:45.455Z,27.58
2019-03-27T02:45:18.191Z,24.63
2019-03-27T02:47:46.685Z,27.77
2019-03-27T02:50:16.840Z,27.90
2019-03-27T02:52:46.254Z,28.98
2019-03-27T02:55:16.229Z,28.87
2019-03-27T02:57:45.577Z,28.55
2019-03-27T03:00:15.102Z,30.80
2019-03-27T03:02:44.743Z,24.40
2019-03-27T03:05:15.089Z,28.47
2019-03-27T03:07:44.885Z,22.20
2019-03-27T03:10:13.857Z,25.13
2019-03-27T03:12:44.094Z,24.67
2019-03-27T03:15:14.557Z,28.45
2019-03-27T03:17:44.626Z,27.90
2019-03-27T03:20:13.615Z,33.37
2019-03-27T03:22:42.094Z,24.27
2019-03-27T03:25:13.653Z,26.05
2019-03-27T03:27:42.177Z,25.75
2019-03-27T03:30:13.893Z,23.98
2019-03-27T03:32:42.440Z,21.52
2019-03-27T03:35:12.878Z,24.73
2019-03-27T03:37:44.355Z,23.42
2019-03-27T03:40:15.853Z,27.95
2019-03-27T03:42:44.402Z,25.62
2019-03-27T03:45:13.564Z,26.70
2019-03-27T03:47:44.596Z,27.58
2019-03-27T03:50:18.286Z,26.27
2019-03-27T03:52:47.027Z,20.68
2019-03-27T03:55:15.924Z,24.75
2019-03-27T03:57:46.910Z,33.70
2019-03-27T04:00:15.551Z,30.68
2019-03-27T04:02:46.354Z,30.62
2019-03-27T04:05:17.945Z,23.20
2019-03-27T04:07:46.470Z,29.45
2019-03-27T04:10:15.009Z,23.40
2019-03-27T04:12:44.471Z,27.77
2019-03-27T04:15:13.076Z,25.52
2019-03-27T04:17:41.539Z,25.52
2019-03-27T04:20:15.117Z,28.25
2019-03-27T04:22:45.560Z,22.93
2019-03-27T04:25:17.621Z,25.27
2019-03-27T04:27:46.148Z,29.07
2019-03-27T04:30:15.169Z,26.97
2019-03-27T04:32:45.768Z,23.42
2019-03-27T04:35:14.220Z,24.18
2019-03-27T04:37:42.701Z,27.90
2019-03-27T04:40:11.394Z,26.43
2019-03-27T04:42:39.904Z,25.48
2019-03-27T04:45:10.592Z,25.27
2019-03-27T04:47:39.577Z,25.15
2019-03-27T04:50:08.360Z,32.45
2019-03-27T04:52:36.831Z,33.13
2019-03-27T04:55:09.198Z,20.43
2019-03-27T04:57:37.647Z,27.53
2019-03-27T05:00:10.759Z,26.05
2019-03-27T05:02:39.558Z,27.40
2019-03-27T05:05:12.379Z,35.92
2019-03-27T05:07:41.394Z,33.50
2019-03-27T05:10:10.327Z,33.28
2019-03-27T05:12:39.070Z,34.03
2019-03-27T05:15:10.574Z,27.77
2019-03-27T05:17:45.893Z,32.83
2019-03-27T05:20:09.982Z,32.13
2019-03-27T05:22:38.616Z,30.75
2019-03-27T05:25:07.405Z,26.50
2019-03-27T05:27:36.414Z,37.20
2019-03-27T05:30:08.465Z,28.67
2019-03-27T05:32:38.622Z,34.88
2019-03-27T05:35:07.787Z,36.03
2019-03-27T05:37:36.235Z,30.65
2019-03-27T05:40:07.512Z,35.45
2019-03-27T05:42:37.228Z,32.30
2019-03-27T05:45:08.009Z,36.65
2019-03-27T05:47:39.648Z,27.13
2019-03-27T05:50:08.761Z,35.38
2019-03-27T05:52:37.280Z,32.13
2019-03-27T05:55:05.927Z,43.50
2019-03-27T05:57:47.034Z,37.30
2019-03-27T06:00:17.541Z,33.27
2019-03-27T06:02:46.085Z,35.48
2019-03-27T06:05:14.612Z,32.30
2019-03-27T06:07:43.110Z,32.80
2019-03-27T06:10:11.698Z,35.38
2019-03-27T06:12:41.864Z,40.75
2019-03-27T06:15:10.586Z,37.28
2019-03-27T06:17:39.077Z,34.48
2019-03-27T06:20:08.275Z,45.50
2019-03-27T06:22:42.617Z,29.15
2019-03-27T06:25:15.809Z,33.48
2019-03-27T06:27:52.323Z,32.60
2019-03-27T06:33:02.949Z,38.00
2019-03-27T06:35:31.403Z,34.90
2019-03-27T06:37:59.878Z,32.53
2019-03-27T06:40:28.364Z,32.58
2019-03-27T06:42:56.824Z,41.60
2019-03-27T06:45:25.493Z,35.50
2019-03-27T06:48:00.797Z,44.35
2019-03-27T06:50:40.026Z,38.65
2019-03-27T06:53:08.760Z,36.20
2019-03-27T06:55:37.216Z,38.80
2019-03-27T06:58:07.746Z,34.05
2019-03-27T07:00:37.549Z,34.10
2019-03-27T07:03:07.509Z,37.48
2019-03-27T07:05:35.991Z,40.55
2019-03-27T07:08:06.397Z,37.38
2019-03-27T07:10:36.305Z,30.95
2019-03-27T07:13:06.410Z,31.97
2019-03-27T07:15:35.903Z,32.33
2019-03-27T07:18:04.869Z,29.25
2019-03-27T07:20:33.358Z,34.98
2019-03-27T07:23:01.816Z,27.48
2019-03-27T07:25:33.178Z,34.58
2019-03-27T07:28:06.935Z,37.50
2019-03-27T07:30:35.361Z,38.88
2019-03-27T07:33:06.340Z,35.58
2019-03-27T07:35:34.816Z,33.90
2019-03-27T07:38:03.368Z,32.83
2019-03-27T07:40:31.826Z,34.15
2019-03-27T07:43:00.387Z,28.60
2019-03-27T07:45:29.295Z,37.67
2019-03-27T07:47:59.162Z,27.02
2019-03-27T07:50:27.784Z,32.58
2019-03-27T07:52:56.315Z,27.22
2019-03-27T07:55:24.792Z,31.97
2019-03-27T07:57:53.916Z,32.28
2019-03-27T08:00:23.544Z,29.00
2019-03-27T08:02:53.187Z,25.50
2019-03-27T08:05:21.782Z,18.83
2019-03-27T08:07:50.309Z,22.62
2019-03-27T08:10:21.189Z,22.75
2019-03-27T08:12:49.707Z,22.10
2019-03-27T08:15:18.499Z,24.70
2019-03-27T08:17:47.064Z,18.73
2019-03-27T08:20:15.970Z,21.75
2019-03-27T08:22:44.497Z,22.58
2019-03-27T08:25:13.786Z,23.27
2019-03-27T08:27:42.242Z,22.30
2019-03-27T08:30:13.580Z,20.90
2019-03-27T08:32:42.217Z,21.17
2019-03-27T08:35:11.294Z,18.77
2019-03-27T08:37:39.871Z,14.93
2019-03-27T08:40:09.868Z,14.25
2019-03-27T08:42:38.543Z,12.93
2019-03-27T08:45:10.729Z,12.88
2019-03-27T08:47:39.324Z,12.18
2019-03-27T08:50:09.823Z,15.63
2019-03-27T08:52:38.345Z,11.93
2019-03-27T08:55:08.500Z,12.15
2019-03-27T08:57:37.049Z,15.65
2019-03-27T09:00:08.681Z,12.07
2019-03-27T09:02:37.249Z,12.37
2019-03-27T09:05:08.107Z,13.13
2019-03-27T09:07:36.558Z,12.75
2019-03-27T09:10:08.892Z,9.65
2019-03-27T09:12:37.438Z,10.58
2019-03-27T09:15:08.429Z,14.98
2019-03-27T09:17:36.923Z,18.85
2019-03-27T09:20:08.500Z,18.07
2019-03-27T09:22:37.043Z,15.88
2019-03-27T09:25:06.384Z,17.87
2019-03-27T09:27:34.916Z,15.40
2019-03-27T09:30:05.559Z,17.20
2019-03-27T09:32:34.152Z,8.80
2019-03-27T09:35:02.837Z,12.98
2019-03-27T09:37:31.337Z,13.85
2019-03-27T09:39:59.814Z,13.13
2019-03-27T09:42:28.331Z,13.28
2019-03-27T09:44:56.831Z,16.82
2019-03-27T09:47:27.531Z,14.10
2019-03-27T09:49:56.102Z,12.47
2019-03-27T09:52:24.792Z,17.30
2019-03-27T09:54:54.887Z,11.38
2019-03-27T09:57:23.343Z,10.43
2019-03-27T09:59:51.820Z,14.05
2019-03-27T10:02:20.271Z,13.18
2019-03-27T10:04:48.734Z,11.97
2019-03-27T10:07:18.757Z,13.30
2019-03-27T10:09:50.209Z,10.90
2019-03-27T10:12:19.150Z,12.73
2019-03-27T10:14:50.515Z,9.68
2019-03-27T10:17:18.996Z,12.43
2019-03-27T10:19:47.598Z,13.03
2019-03-27T10:22:16.105Z,18.15
2019-03-27T10:24:44.592Z,13.40
2019-03-27T10:27:14.027Z,10.35
2019-03-27T10:29:45.202Z,13.25
2019-03-27T10:32:16.175Z,17.07
2019-03-27T10:34:44.708Z,11.70
2019-03-27T10:37:13.263Z,13.73
2019-03-27T10:39:46.592Z,16.70
2019-03-27T10:42:15.054Z,11.85
2019-03-27T10:44:43.642Z,16.12
2019-03-27T10:47:13.679Z,16.25
2019-03-27T10:49:47.238Z,16.90
2019-03-27T10:52:17.329Z,12.40
2019-03-27T10:54:45.859Z,11.65
2019-03-27T10:57:14.319Z,11.97
2019-03-27T10:59:43.386Z,16.67
2019-03-27T11:02:11.912Z,13.30
2019-03-27T11:04:40.379Z,14.28
2019-03-27T11:07:08.864Z,16.50
2019-03-27T11:09:37.359Z,10.28
2019-03-27T11:12:05.910Z,11.43
2019-03-27T11:14:38.065Z,10.68
2019-03-27T11:17:05.993Z,12.75
2019-03-27T11:19:34.515Z,10.75
2019-03-27T11:22:03.022Z,9.63
2019-03-27T11:24:31.548Z,14.50
2019-03-27T11:27:01.532Z,11.55
2019-03-27T11:29:31.262Z,13.80
2019-03-27T11:32:01.483Z,13.08
2019-03-27T11:34:30.002Z,13.75
2019-03-27T11:37:02.060Z,10.10
2019-03-27T11:39:30.550Z,14.63
2019-03-27T11:42:00.737Z,10.95
2019-03-27T11:44:29.744Z,14.13
2019-03-27T11:46:58.203Z,15.83
2019-03-27T11:49:26.665Z,13.22
2019-03-27T11:51:55.136Z,16.77
2019-03-27T11:54:27.831Z,14.95
2019-03-27T11:56:56.291Z,11.18
2019-03-27T11:59:53.709Z,15.68
2019-03-27T12:02:14.328Z,11.65
2019-03-27T12:04:43.476Z,15.55
2019-03-27T12:07:12.083Z,14.20
2019-03-27T12:09:40.543Z,13.68
2019-03-27T12:12:09.066Z,8.88
2019-03-27T12:14:37.728Z,9.65
2019-03-27T12:17:06.413Z,14.60
2019-03-27T12:19:37.728Z,19.45
2019-03-27T12:22:05.304Z,14.68
2019-03-27T12:24:33.796Z,14.45
2019-03-27T12:27:02.274Z,14.87
2019-03-27T12:29:30.896Z,11.90
2019-03-27T12:32:00.382Z,13.30
2019-03-27T12:34:28.837Z,17.75
2019-03-27T12:36:57.458Z,15.68
2019-03-27T12:39:29.797Z,13.20
2019-03-27T12:41:58.268Z,11.15
2019-03-27T12:44:26.841Z,20.07
2019-03-27T12:46:55.275Z,16.85
2019-03-27T12:49:23.734Z,15.98
2019-03-27T12:51:52.555Z,14.73
2019-03-27T12:54:21.091Z,17.37
2019-03-27T12:56:50.179Z,19.52
2019-03-27T12:59:18.812Z,16.97
2019-03-27T13:01:48.700Z,16.65
2019-03-27T13:04:17.164Z,19.20
2019-03-27T13:06:45.694Z,15.58
2019-03-27T13:09:14.157Z,17.10
2019-03-27T13:11:42.615Z,16.20
2019-03-27T13:14:11.249Z,13.60
2019-03-27T13:16:39.703Z,16.10
2019-03-27T13:19:08.315Z,17.15
2019-03-27T13:21:36.868Z,18.62
2019-03-27T13:24:05.388Z,12.80
2019-03-27T13:26:34.402Z,12.23
2019-03-27T13:29:03.020Z,14.07
2019-03-27T13:31:31.487Z,12.82
2019-03-27T13:33:59.943Z,15.05
2019-03-27T13:36:28.400Z,19.42
2019-03-27T13:38:56.910Z,16.77
2019-03-27T13:41:25.369Z,12.88
2019-03-27T13:43:53.832Z,18.40
2019-03-27T13:46:23.962Z,14.83
2019-03-27T13:48:52.491Z,13.00
2019-03-27T13:51:22.507Z,16.17
2019-03-27T13:53:50.996Z,13.68
2019-03-27T13:56:19.529Z,16.75
2019-03-27T13:58:48.551Z,11.55
2019-03-27T14:01:17.120Z,13.30
2019-03-27T14:03:47.400Z,12.60
2019-03-27T14:06:15.855Z,14.58
2019-03-27T14:08:44.490Z,13.60
2019-03-27T14:11:14.036Z,14.00
2019-03-27T14:13:43.557Z,13.98
2019-03-27T14:16:12.499Z,14.28
2019-03-27T14:18:41.028Z,12.90
2019-03-27T14:21:09.553Z,15.08
2019-03-27T14:23:38.029Z,12.82
2019-03-27T14:26:06.559Z,15.88
2019-03-27T14:28:35.151Z,10.70
2019-03-27T14:31:03.688Z,13.35
2019-03-27T14:33:32.147Z,13.48
2019-03-27T14:36:02.274Z,14.95
2019-03-27T14:38:32.388Z,16.00
2019-03-27T14:41:00.894Z,18.15
2019-03-27T14:43:29.384Z,14.93
2019-03-27T14:45:58.214Z,19.45
2019-03-27T14:48:26.788Z,19.73
2019-03-27T14:50:55.324Z,15.93
2019-03-27T14:53:23.884Z,14.63
2019-03-27T14:55:52.355Z,14.18
2019-03-27T14:58:20.869Z,21.30
2019-03-27T15:00:51.358Z,15.08
2019-03-27T15:03:22.358Z,11.60
2019-03-27T15:05:50.883Z,12.20
2019-03-27T15:08:19.444Z,14.03
2019-03-27T15:10:47.959Z,13.58
2019-03-27T15:13:16.471Z,11.70
2019-03-27T15:15:45.023Z,13.45
2019-03-27T15:18:13.500Z,10.98
2019-03-27T15:20:42.026Z,11.65
2019-03-27T15:23:10.523Z,11.87
2019-03-27T15:25:38.977Z,15.88
2019-03-27T15:28:07.424Z,18.48
2019-03-27T15:30:35.988Z,15.48
2019-03-27T15:33:04.689Z,11.70
2019-03-27T15:35:33.194Z,14.45
2019-03-27T15:38:01.681Z,13.15
2019-03-27T15:40:45.040Z,12.37
2019-03-27T15:43:15.889Z,12.73
2019-03-27T15:45:44.344Z,12.10
2019-03-27T15:48:12.897Z,10.10
2019-03-27T15:50:54.415Z,9.78
2019-03-27T15:53:11.625Z,11.70
2019-03-27T15:55:40.145Z,9.45
2019-03-27T15:58:08.722Z,13.62
2019-03-27T16:00:37.255Z,13.30
2019-03-27T16:03:06.090Z,10.60
2019-03-27T16:05:38.087Z,14.83
2019-03-27T16:08:06.751Z,13.35
2019-03-27T16:10:35.434Z,14.05
2019-03-27T16:13:04.978Z,10.32
2019-03-27T16:15:36.904Z,13.30
2019-03-27T16:18:04.958Z,8.38
2019-03-27T16:20:33.988Z,9.00
2019-03-27T16:23:03.484Z,9.80
2019-03-27T16:25:33.703Z,9.95
2019-03-27T16:28:03.725Z,11.05
2019-03-27T16:30:32.412Z,10.30
2019-03-27T16:33:00.927Z,8.10
2019-03-27T16:35:30.801Z,10.00
2019-03-27T16:37:59.264Z,6.55
2019-03-27T16:40:44.841Z,9.15
2019-03-27T16:43:13.385Z,10.28
2019-03-27T16:45:43.398Z,9.58
2019-03-27T16:48:12.257Z,12.18
2019-03-27T16:50:40.868Z,8.13
2019-03-27T16:53:11.902Z,10.58
2019-03-27T16:55:40.522Z,13.25
2019-03-27T16:58:10.301Z,12.93
2019-03-27T17:00:39.215Z,8.25
2019-03-27T17:03:07.764Z,9.45
2019-03-27T17:05:37.801Z,8.58
2019-03-27T17:08:06.271Z,12.03
2019-03-27T17:10:37.201Z,10.45
2019-03-27T17:13:07.450Z,8.38
2019-03-27T17:15:36.227Z,9.20
2019-03-27T17:18:05.355Z,9.78
2019-03-27T17:20:33.799Z,9.83
2019-03-27T17:23:02.254Z,10.58
2019-03-27T17:25:30.748Z,8.68
2019-03-27T17:27:59.284Z,11.50
2019-03-27T17:30:28.049Z,11.33
2019-03-27T17:32:56.582Z,10.75
2019-03-27T17:35:25.123Z,12.35
2019-03-27T17:37:53.652Z,9.55
2019-03-27T17:40:22.325Z,14.93
2019-03-27T17:42:50.783Z,11.48
2019-03-27T17:45:19.382Z,13.18
2019-03-27T17:47:48.893Z,12.45
2019-03-27T17:50:17.423Z,14.30
2019-03-27T17:52:45.956Z,15.78
2019-03-27T17:55:16.039Z,15.75
2019-03-27T17:57:44.523Z,11.20
2019-03-27T18:00:16.958Z,14.75
2019-03-27T18:02:45.505Z,12.05
2019-03-27T18:05:14.045Z,14.55
2019-03-27T18:07:44.113Z,16.95
2019-03-27T18:10:12.819Z,14.40
2019-03-27T18:12:41.279Z,14.95
2019-03-27T18:15:09.886Z,16.78
2019-03-27T18:17:38.380Z,17.27
2019-03-27T18:20:08.427Z,25.97
2019-03-27T18:22:37.840Z,16.23
2019-03-27T18:25:06.570Z,16.57
2019-03-27T18:27:38.025Z,16.30
2019-03-27T18:30:08.128Z,13.88
2019-03-27T18:32:36.673Z,14.13
2019-03-27T18:35:06.691Z,19.65
2019-03-27T18:37:35.155Z,18.70
2019-03-27T18:40:07.387Z,11.80
2019-03-27T18:42:35.957Z,16.67
2019-03-27T18:45:07.726Z,16.75
2019-03-27T18:47:36.346Z,15.20
2019-03-27T18:50:07.087Z,13.08
2019-03-27T18:52:37.955Z,14.28
2019-03-27T18:55:07.169Z,15.13
2019-03-27T18:57:35.633Z,20.08
2019-03-27T19:00:10.452Z,15.55
2019-03-27T19:02:38.982Z,13.85
2019-03-27T19:05:08.125Z,13.65
2019-03-27T19:07:36.598Z,16.37
2019-03-27T19:10:08.190Z,13.13
2019-03-27T19:12:36.914Z,16.12
2019-03-27T19:15:07.164Z,11.57
2019-03-27T19:17:36.495Z,12.60
2019-03-27T19:20:06.979Z,15.28
2019-03-27T19:22:35.577Z,20.25
2019-03-27T19:25:07.147Z,15.63
2019-03-27T19:27:35.609Z,20.95
2019-03-27T19:30:07.404Z,18.95
2019-03-27T19:32:35.952Z,15.75
2019-03-27T19:35:05.296Z,17.42
2019-03-27T19:37:34.188Z,17.00
2019-03-27T19:40:03.947Z,18.87
2019-03-27T19:42:33.009Z,18.12
2019-03-27T19:45:01.569Z,17.65
2019-03-27T19:47:30.247Z,19.17
2019-03-27T19:49:58.860Z,19.25
2019-03-27T19:52:27.322Z,19.15
2019-03-27T19:54:56.280Z,22.40
2019-03-27T19:57:24.730Z,21.15
2019-03-27T19:59:53.308Z,21.05
2019-03-27T20:02:24.875Z,19.80
2019-03-27T20:04:55.011Z,20.17
2019-03-27T20:07:35.305Z,25.37
2019-03-27T20:09:59.776Z,22.90
2019-03-27T20:12:28.828Z,20.80
2019-03-27T20:15:11.067Z,20.50
2019-03-27T20:17:32.117Z,18.43
2019-03-27T20:20:00.664Z,18.82
2019-03-27T20:22:29.333Z,24.80
2019-03-27T20:25:00.397Z,24.92
2019-03-27T20:27:29.625Z,22.07
2019-03-27T20:29:58.109Z,23.30
2019-03-27T20:32:26.931Z,20.35
2019-03-27T20:34:55.425Z,23.05
2019-03-27T20:37:23.968Z,21.80
2019-03-27T20:39:54.027Z,25.03
2019-03-27T20:42:22.489Z,23.62
2019-03-27T20:44:51.063Z,23.20
2019-03-27T20:47:19.536Z,25.13
2019-03-27T20:49:48.156Z,23.02
2019-03-27T20:52:16.707Z,22.43
2019-03-27T20:54:54.847Z,24.43
2019-03-27T20:57:15.779Z,22.48
2019-03-27T20:59:45.399Z,22.55
2019-03-27T21:02:13.889Z,20.40
2019-03-27T21:04:42.332Z,21.10
2019-03-27T21:07:10.827Z,25.88
2019-03-27T21:09:39.561Z,26.95
2019-03-27T21:12:08.132Z,28.67
2019-03-27T21:14:36.622Z,26.02
2019-03-27T21:17:05.073Z,25.43
2019-03-27T21:19:36.068Z,24.63
2019-03-27T21:22:04.633Z,26.02
2019-03-27T21:24:33.124Z,24.63
2019-03-27T21:27:01.867Z,22.70
2019-03-27T21:29:30.549Z,29.90
2019-03-27T21:31:59.075Z,25.70
2019-03-27T21:34:27.521Z,26.97
2019-03-27T21:36:57.566Z,29.50
2019-03-27T21:39:27.047Z,29.15
2019-03-27T21:41:55.589Z,25.23
2019-03-27T21:44:24.236Z,24.30
2019-03-27T21:46:52.719Z,28.57
2019-03-27T21:49:21.264Z,25.15
2019-03-27T21:51:49.837Z,26.87
2019-03-27T21:54:18.420Z,25.88
2019-03-27T21:56:46.981Z,29.32
2019-03-27T21:59:15.664Z,32.40
2019-03-27T22:01:44.213Z,30.17
2019-03-27T22:04:12.697Z,27.55
2019-03-27T22:06:41.228Z,29.02
2019-03-27T22:09:09.861Z,30.72
2019-03-27T22:11:38.345Z,32.03
2019-03-27T22:14:07.695Z,34.00
2019-03-27T22:16:36.242Z,30.02
2019-03-27T22:19:06.406Z,30.00
2019-03-27T22:21:34.958Z,30.23
2019-03-27T22:24:03.448Z,29.32
2019-03-27T22:26:31.953Z,31.07
2019-03-27T22:29:00.445Z,32.33
2019-03-27T22:31:28.926Z,30.77
2019-03-27T22:33:57.637Z,26.35
2019-03-27T22:36:26.262Z,29.02
2019-03-27T22:38:54.762Z,34.10
2019-03-27T22:41:24.992Z,37.60
2019-03-27T22:43:53.481Z,26.62
2019-03-27T22:46:21.979Z,30.48
2019-03-27T22:48:50.546Z,29.90
2019-03-27T22:51:19.024Z,34.27
2019-03-27T22:53:47.645Z,30.32
2019-03-27T22:56:16.222Z,38.63
2019-03-27T22:58:44.785Z,34.85
2019-03-27T23:01:13.339Z,37.60
2019-03-27T23:03:41.955Z,33.97
2019-03-27T23:06:10.471Z,31.82
2019-03-27T23:08:38.975Z,39.03
2019-03-27T23:11:07.532Z,35.10
2019-03-27T23:13:36.088Z,35.33
2019-03-27T23:16:05.094Z,34.40
2019-03-27T23:18:33.648Z,41.13
2019-03-27T23:21:02.154Z,41.20
2019-03-27T23:23:33.249Z,39.13
2019-03-27T23:26:05.713Z,37.78
2019-03-27T23:28:34.212Z,42.08
2019-03-27T23:31:02.792Z,48.30
2019-03-27T23:33:31.340Z,44.93
2019-03-27T23:35:59.814Z,45.55
2019-03-27T23:38:28.335Z,41.35
2019-03-27T23:40:56.875Z,44.27
2019-03-27T23:43:25.359Z,47.23
2019-03-27T23:45:54.093Z,46.65
2019-03-27T23:48:22.897Z,49.67
2019-03-27T23:50:51.426Z,47.05
2019-03-27T23:53:19.934Z,52.03
2019-03-27T23:55:48.452Z,44.08
2019-03-27T23:58:17.014Z,48.45
